sensor_id;sensor_type;location;lat;lon;timestamp;pressure;altitude;pressure_sealevel;temperature;humidity
11172;BME280;5642;50.830;12.082;2023-04-03T00:00:47;100542.56;;;8.05;50.25
11172;BME280;5642;50.830;12.082;2023-04-03T00:03:16;100545.19;;;8.03;50.08
11172;BME280;5642;50.830;12.082;2023-04-03T00:05:42;100546.06;;;8.05;50.05
11172;BME280;5642;50.830;12.082;2023-04-03T00:08:09;100549.56;;;8.03;50.40
11172;BME280;5642;50.830;12.082;2023-04-03T00:10:36;100540.88;;;8.02;49.47
11172;BME280;5642;50.830;12.082;2023-04-03T00:13:05;100540.84;;;7.98;50.21
11172;BME280;5642;50.830;12.082;2023-04-03T00:15:32;100532.19;;;7.93;50.24
11172;BME280;5642;50.830;12.082;2023-04-03T00:17:58;100538.28;;;7.87;50.09
11172;BME280;5642;50.830;12.082;2023-04-03T00:20:24;100544.38;;;7.83;49.45
11172;BME280;5642;50.830;12.082;2023-04-03T00:22:54;100545.25;;;7.79;50.31
11172;BME280;5642;50.830;12.082;2023-04-03T00:25:21;100541.78;;;7.75;49.94
11172;BME280;5642;50.830;12.082;2023-04-03T00:27:48;100553.09;;;7.73;50.29
11172;BME280;5642;50.830;12.082;2023-04-03T00:30:17;100546.16;;;7.70;50.11
11172;BME280;5642;50.830;12.082;2023-04-03T00:32:43;100550.50;;;7.67;50.42
11172;BME280;5642;50.830;12.082;2023-04-03T00:35:13;100545.28;;;7.64;50.21
11172;BME280;5642;50.830;12.082;2023-04-03T00:37:43;100549.63;;;7.63;50.37
11172;BME280;5642;50.830;12.082;2023-04-03T00:40:14;100546.16;;;7.58;50.39
11172;BME280;5642;50.830;12.082;2023-04-03T00:42:42;100563.56;;;7.58;50.19
11172;BME280;5642;50.830;12.082;2023-04-03T00:45:33;100560.94;;;7.55;49.88
11172;BME280;5642;50.830;12.082;2023-04-03T00:48:01;100554.00;;;7.43;50.14
11172;BME280;5642;50.830;12.082;2023-04-03T00:50:32;100560.09;;;7.42;50.61
11172;BME280;5642;50.830;12.082;2023-04-03T00:53:00;100558.34;;;7.33;50.46
11172;BME280;5642;50.830;12.082;2023-04-03T00:55:27;100570.53;;;7.31;50.17
11172;BME280;5642;50.830;12.082;2023-04-03T00:57:56;100567.03;;;7.25;50.69
11172;BME280;5642;50.830;12.082;2023-04-03T01:00:23;100569.66;;;7.22;50.23
11172;BME280;5642;50.830;12.082;2023-04-03T01:02:50;100569.66;;;7.16;50.47
11172;BME280;5642;50.830;12.082;2023-04-03T01:05:20;100562.69;;;7.15;50.17
11172;BME280;5642;50.830;12.082;2023-04-03T01:07:49;100587.00;;;7.12;50.30
11172;BME280;5642;50.830;12.082;2023-04-03T01:10:18;100569.63;;;7.00;50.30
11172;BME280;5642;50.830;12.082;2023-04-03T01:12:49;100581.78;;;7.00;50.46
11172;BME280;5642;50.830;12.082;2023-04-03T01:15:20;100580.88;;;6.96;50.60
11172;BME280;5642;50.830;12.082;2023-04-03T01:17:54;100586.13;;;6.95;50.57
11172;BME280;5642;50.830;12.082;2023-04-03T01:25:27;100580.88;;;6.92;50.40
11172;BME280;5642;50.830;12.082;2023-04-03T01:27:54;100582.66;;;6.96;49.84
11172;BME280;5642;50.830;12.082;2023-04-03T01:30:21;100581.78;;;7.00;50.19
11172;BME280;5642;50.830;12.082;2023-04-03T01:32:50;100593.06;;;7.00;50.47
11172;BME280;5642;50.830;12.082;2023-04-03T01:35:17;100585.25;;;6.96;50.38
11172;BME280;5642;50.830;12.082;2023-04-03T01:37:43;100587.88;;;6.96;50.00
11172;BME280;5642;50.830;12.082;2023-04-03T01:40:12;100586.09;;;6.96;50.06
11172;BME280;5642;50.830;12.082;2023-04-03T01:42:39;100584.38;;;6.95;50.21
11172;BME280;5642;50.830;12.082;2023-04-03T01:45:05;100588.72;;;6.99;50.06
11172;BME280;5642;50.830;12.082;2023-04-03T01:47:32;100596.56;;;7.02;50.09
11172;BME280;5642;50.830;12.082;2023-04-03T01:49:59;100605.22;;;7.06;49.97
11172;BME280;5642;50.830;12.082;2023-04-03T01:52:25;100603.47;;;6.99;50.00
11172;BME280;5642;50.830;12.082;2023-04-03T01:54:51;100614.78;;;7.05;50.27
11172;BME280;5642;50.830;12.082;2023-04-03T01:57:18;100605.22;;;7.00;49.85
11172;BME280;5642;50.830;12.082;2023-04-03T01:59:44;100618.25;;;6.95;50.29
11172;BME280;5642;50.830;12.082;2023-04-03T02:02:10;100623.44;;;6.91;50.36
11172;BME280;5642;50.830;12.082;2023-04-03T02:04:38;100617.34;;;6.90;50.25
11172;BME280;5642;50.830;12.082;2023-04-03T02:07:04;100619.97;;;6.89;50.03
11172;BME280;5642;50.830;12.082;2023-04-03T02:09:30;100619.09;;;6.90;50.19
11172;BME280;5642;50.830;12.082;2023-04-03T02:11:57;100619.97;;;6.93;50.08
11172;BME280;5642;50.830;12.082;2023-04-03T02:14:23;100610.41;;;6.89;50.36
11172;BME280;5642;50.830;12.082;2023-04-03T02:16:49;100613.88;;;6.97;50.26
11172;BME280;5642;50.830;12.082;2023-04-03T02:19:16;100618.22;;;6.92;49.50
11172;BME280;5642;50.830;12.082;2023-04-03T02:21:42;100616.47;;;6.91;50.07
11172;BME280;5642;50.830;12.082;2023-04-03T02:24:08;100602.59;;;6.82;49.70
11172;BME280;5642;50.830;12.082;2023-04-03T02:26:34;100616.47;;;6.91;50.25
11172;BME280;5642;50.830;12.082;2023-04-03T02:29:00;100606.94;;;6.81;49.92
11172;BME280;5642;50.830;12.082;2023-04-03T02:31:26;100613.00;;;6.86;50.02
11172;BME280;5642;50.830;12.082;2023-04-03T02:33:52;100599.94;;;6.76;50.08
11172;BME280;5642;50.830;12.082;2023-04-03T02:36:19;100617.34;;;6.80;50.07
11172;BME280;5642;50.830;12.082;2023-04-03T02:38:45;100619.03;;;6.70;50.15
11172;BME280;5642;50.830;12.082;2023-04-03T02:41:12;100627.72;;;6.67;50.34
11172;BME280;5642;50.830;12.082;2023-04-03T02:43:41;100623.34;;;6.62;50.28
11172;BME280;5642;50.830;12.082;2023-04-03T02:46:08;100617.25;;;6.52;50.24
11172;BME280;5642;50.830;12.082;2023-04-03T02:48:34;100632.81;;;6.45;50.55
11172;BME280;5642;50.830;12.082;2023-04-03T02:51:00;100620.63;;;6.32;50.20
11172;BME280;5642;50.830;12.082;2023-04-03T02:53:26;100624.94;;;6.33;50.41
11172;BME280;5642;50.830;12.082;2023-04-03T02:55:53;100630.97;;;6.25;50.53
11172;BME280;5642;50.830;12.082;2023-04-03T02:58:19;100632.69;;;6.22;50.37
11172;BME280;5642;50.830;12.082;2023-04-03T03:00:45;100634.41;;;6.15;50.57
11172;BME280;5642;50.830;12.082;2023-04-03T03:03:11;100631.75;;;6.08;50.48
11172;BME280;5642;50.830;12.082;2023-04-03T03:05:39;100643.91;;;6.12;50.68
11172;BME280;5642;50.830;12.082;2023-04-03T03:08:05;100640.44;;;6.08;50.62
11172;BME280;5642;50.830;12.082;2023-04-03T03:10:32;100636.94;;;6.06;50.49
11172;BME280;5642;50.830;12.082;2023-04-03T03:12:58;100635.19;;;6.01;50.62
11172;BME280;5642;50.830;12.082;2023-04-03T03:15:24;100639.53;;;6.03;50.58
11172;BME280;5642;50.830;12.082;2023-04-03T03:17:50;100650.78;;;6.01;50.68
11172;BME280;5642;50.830;12.082;2023-04-03T03:20:16;100636.84;;;5.93;50.65
11172;BME280;5642;50.830;12.082;2023-04-03T03:22:42;100642.97;;;5.96;50.45
11172;BME280;5642;50.830;12.082;2023-04-03T03:25:09;100649.00;;;5.94;50.91
11172;BME280;5642;50.830;12.082;2023-04-03T03:27:35;100647.16;;;5.83;50.28
11172;BME280;5642;50.830;12.082;2023-04-03T03:30:01;100646.31;;;5.86;50.65
11172;BME280;5642;50.830;12.082;2023-04-03T03:32:28;100649.75;;;5.85;50.32
11172;BME280;5642;50.830;12.082;2023-04-03T03:34:53;100658.41;;;5.84;50.33
11172;BME280;5642;50.830;12.082;2023-04-03T03:37:20;100658.41;;;5.84;50.83
11172;BME280;5642;50.830;12.082;2023-04-03T03:39:46;100654.03;;;5.77;50.34
11172;BME280;5642;50.830;12.082;2023-04-03T03:42:15;100664.50;;;5.81;50.47
11172;BME280;5642;50.830;12.082;2023-04-03T03:44:42;100660.16;;;5.80;50.43
11172;BME280;5642;50.830;12.082;2023-04-03T03:47:09;100664.44;;;5.78;50.65
11172;BME280;5642;50.830;12.082;2023-04-03T03:49:36;100670.53;;;5.79;50.37
11172;BME280;5642;50.830;12.082;2023-04-03T03:52:05;100671.41;;;5.79;50.18
11172;BME280;5642;50.830;12.082;2023-04-03T03:54:31;100673.09;;;5.77;50.32
11172;BME280;5642;50.830;12.082;2023-04-03T03:56:57;100669.63;;;5.77;50.51
11172;BME280;5642;50.830;12.082;2023-04-03T03:59:24;100674.84;;;5.77;50.30
11172;BME280;5642;50.830;12.082;2023-04-03T04:01:51;100673.09;;;5.74;50.02
11172;BME280;5642;50.830;12.082;2023-04-03T04:04:17;100666.06;;;5.64;50.50
11172;BME280;5642;50.830;12.082;2023-04-03T04:06:43;100680.84;;;5.67;50.51
11172;BME280;5642;50.830;12.082;2023-04-03T04:09:09;100685.97;;;5.62;50.47
11172;BME280;5642;50.830;12.082;2023-04-03T04:11:35;100682.47;;;5.54;50.61
11172;BME280;5642;50.830;12.082;2023-04-03T04:14:01;100687.66;;;5.56;50.31
11172;BME280;5642;50.830;12.082;2023-04-03T04:16:28;100691.91;;;5.49;50.42
11172;BME280;5642;50.830;12.082;2023-04-03T04:18:55;100687.50;;;5.39;50.54
11172;BME280;5642;50.830;12.082;2023-04-03T04:21:21;100691.78;;;5.35;50.85
11172;BME280;5642;50.830;12.082;2023-04-03T04:23:47;100694.34;;;5.31;50.38
11172;BME280;5642;50.830;12.082;2023-04-03T04:26:14;100694.28;;;5.25;50.58
11172;BME280;5642;50.830;12.082;2023-04-03T04:28:40;100687.28;;;5.18;50.58
11172;BME280;5642;50.830;12.082;2023-04-03T04:31:07;100691.56;;;5.14;50.90
11172;BME280;5642;50.830;12.082;2023-04-03T04:33:33;100701.91;;;5.08;50.53
11172;BME280;5642;50.830;12.082;2023-04-03T04:35:59;100702.69;;;5.01;51.07
11172;BME280;5642;50.830;12.082;2023-04-03T04:38:25;100693.94;;;4.93;50.89
11172;BME280;5642;50.830;12.082;2023-04-03T04:40:51;100702.63;;;4.95;50.59
11172;BME280;5642;50.830;12.082;2023-04-03T04:43:17;100714.78;;;4.99;51.31
11172;BME280;5642;50.830;12.082;2023-04-03T04:45:43;100707.84;;;4.99;50.71
11172;BME280;5642;50.830;12.082;2023-04-03T04:48:10;100714.78;;;5.00;50.79
11172;BME280;5642;50.830;12.082;2023-04-03T04:50:36;100717.41;;;5.02;50.76
11172;BME280;5642;50.830;12.082;2023-04-03T04:53:02;100717.41;;;5.02;50.60
11172;BME280;5642;50.830;12.082;2023-04-03T04:55:30;100712.16;;;4.97;50.86
11172;BME280;5642;50.830;12.082;2023-04-03T04:57:56;100712.16;;;4.96;50.89
11172;BME280;5642;50.830;12.082;2023-04-03T05:00:22;100715.63;;;4.96;51.05
11172;BME280;5642;50.830;12.082;2023-04-03T05:02:48;100716.41;;;4.92;50.64
11172;BME280;5642;50.830;12.082;2023-04-03T05:05:14;100720.78;;;4.95;51.08
11172;BME280;5642;50.830;12.082;2023-04-03T05:07:43;100719.91;;;4.94;50.69
11172;BME280;5642;50.830;12.082;2023-04-03T05:10:10;100726.03;;;4.99;51.02
11172;BME280;5642;50.830;12.082;2023-04-03T05:12:37;100714.75;;;4.97;50.85
11172;BME280;5642;50.830;12.082;2023-04-03T05:15:04;100736.59;;;5.15;50.64
11172;BME280;5642;50.830;12.082;2023-04-03T05:17:30;100738.41;;;5.19;50.21
11172;BME280;5642;50.830;12.082;2023-04-03T05:19:56;100734.06;;;5.18;50.34
11172;BME280;5642;50.830;12.082;2023-04-03T05:22:22;100743.59;;;5.19;50.32
11172;BME280;5642;50.830;12.082;2023-04-03T05:24:48;100739.22;;;5.16;50.24
11172;BME280;5642;50.830;12.082;2023-04-03T05:27:17;100740.06;;;5.15;50.09
11172;BME280;5642;50.830;12.082;2023-04-03T05:29:45;100729.84;;;5.30;50.55
11172;BME280;5642;50.830;12.082;2023-04-03T05:32:14;100731.56;;;6.20;49.07
11172;BME280;5642;50.830;12.082;2023-04-03T05:34:40;100741.66;;;7.28;47.13
11172;BME280;5642;50.830;12.082;2023-04-03T05:37:06;100732.22;;;8.24;45.88
11172;BME280;5642;50.830;12.082;2023-04-03T05:39:33;100732.06;;;8.94;45.10
11172;BME280;5642;50.830;12.082;2023-04-03T05:41:59;100728.50;;;9.16;44.39
11172;BME280;5642;50.830;12.082;2023-04-03T05:44:25;100735.38;;;9.25;44.51
11172;BME280;5642;50.830;12.082;2023-04-03T05:46:52;100738.84;;;9.33;44.88
11172;BME280;5642;50.830;12.082;2023-04-03T05:49:18;100731.91;;;9.27;44.86
11172;BME280;5642;50.830;12.082;2023-04-03T05:51:44;100737.19;;;9.15;45.19
11172;BME280;5642;50.830;12.082;2023-04-03T05:54:16;100747.69;;;9.09;45.76
11172;BME280;5642;50.830;12.082;2023-04-03T05:56:43;100742.47;;;9.08;45.84
11172;BME280;5642;50.830;12.082;2023-04-03T05:59:11;100738.09;;;9.03;46.15
11172;BME280;5642;50.830;12.082;2023-04-03T06:01:37;100754.63;;;9.16;46.43
11172;BME280;5642;50.830;12.082;2023-04-03T06:04:03;100747.59;;;9.29;46.04
11172;BME280;5642;50.830;12.082;2023-04-03T06:06:50;100756.19;;;9.51;45.86
11172;BME280;5642;50.830;12.082;2023-04-03T06:09:22;100756.94;;;9.71;45.69
11172;BME280;5642;50.830;12.082;2023-04-03T06:11:51;100750.78;;;9.78;45.14
11172;BME280;5642;50.830;12.082;2023-04-03T06:14:18;100752.34;;;10.00;45.17
11172;BME280;5642;50.830;12.082;2023-04-03T06:16:44;100753.09;;;10.22;45.07
11172;BME280;5642;50.830;12.082;2023-04-03T06:19:12;100753.84;;;10.32;45.30
11172;BME280;5642;50.830;12.082;2023-04-03T06:21:39;100759.91;;;10.38;45.48
11172;BME280;5642;50.830;12.082;2023-04-03T06:24:06;100754.66;;;10.40;45.52
11172;BME280;5642;50.830;12.082;2023-04-03T06:26:32;100753.84;;;10.33;45.86
11172;BME280;5642;50.830;12.082;2023-04-03T06:28:59;100745.25;;;10.19;45.92
11172;BME280;5642;50.830;12.082;2023-04-03T06:31:27;100760.00;;;10.29;45.89
11172;BME280;5642;50.830;12.082;2023-04-03T06:33:55;100761.81;;;10.23;45.89
11172;BME280;5642;50.830;12.082;2023-04-03T06:36:24;100774.94;;;10.10;46.14
11172;BME280;5642;50.830;12.082;2023-04-03T06:38:50;100777.72;;;9.88;46.30
11172;BME280;5642;50.830;12.082;2023-04-03T06:41:16;100765.56;;;9.87;46.17
11172;BME280;5642;50.830;12.082;2023-04-03T06:43:44;100769.06;;;9.82;45.99
11172;BME280;5642;50.830;12.082;2023-04-03T06:46:15;100779.56;;;9.78;46.64
11172;BME280;5642;50.830;12.082;2023-04-03T06:48:42;100775.25;;;9.69;46.75
11172;BME280;5642;50.830;12.082;2023-04-03T06:51:18;100777.81;;;9.74;46.44
11172;BME280;5642;50.830;12.082;2023-04-03T06:53:47;100783.09;;;9.68;46.68
11172;BME280;5642;50.830;12.082;2023-04-03T06:56:13;100790.06;;;9.72;46.53
11172;BME280;5642;50.830;12.082;2023-04-03T06:58:41;100793.53;;;9.75;46.63
11172;BME280;5642;50.830;12.082;2023-04-03T07:01:18;100758.88;;;9.31;46.65
11172;BME280;5642;50.830;12.082;2023-04-03T07:03:58;100812.97;;;9.30;47.17
11172;BME280;5642;50.830;12.082;2023-04-03T07:06:27;100771.31;;;8.73;47.87
11172;BME280;5642;50.830;12.082;2023-04-03T07:08:55;100809.63;;;8.68;47.79
11172;BME280;5642;50.830;12.082;2023-04-03T07:11:22;100819.22;;;8.56;47.83
11172;BME280;5642;50.830;12.082;2023-04-03T07:13:48;100845.38;;;8.38;48.23
11172;BME280;5642;50.830;12.082;2023-04-03T07:16:14;100821.81;;;8.18;47.95
11172;BME280;5642;50.830;12.082;2023-04-03T07:18:41;100833.13;;;8.07;48.35
11172;BME280;5642;50.830;12.082;2023-04-03T07:21:09;100824.41;;;7.88;47.76
11172;BME280;5642;50.830;12.082;2023-04-03T07:23:36;100833.09;;;7.81;48.12
11172;BME280;5642;50.830;12.082;2023-04-03T07:26:02;100836.56;;;7.89;48.40
11172;BME280;5642;50.830;12.082;2023-04-03T07:28:28;100838.31;;;7.98;47.57
11172;BME280;5642;50.830;12.082;2023-04-03T07:31:04;100839.22;;;8.13;48.09
11172;BME280;5642;50.830;12.082;2023-04-03T07:33:32;100832.25;;;8.27;47.67
11172;BME280;5642;50.830;12.082;2023-04-03T07:35:59;100842.72;;;8.46;47.50
11172;BME280;5642;50.830;12.082;2023-04-03T07:38:26;100853.16;;;8.82;47.62
11172;BME280;5642;50.830;12.082;2023-04-03T07:40:54;100844.44;;;8.92;47.30
11172;BME280;5642;50.830;12.082;2023-04-03T07:43:21;100854.00;;;8.89;47.50
11172;BME280;5642;50.830;12.082;2023-04-03T07:45:50;100846.13;;;9.02;47.31
11172;BME280;5642;50.830;12.082;2023-04-03T07:48:19;100847.81;;;9.28;46.84
11172;BME280;5642;50.830;12.082;2023-04-03T07:50:45;100850.34;;;9.46;47.11
11172;BME280;5642;50.830;12.082;2023-04-03T07:53:12;100849.44;;;9.56;46.82
11172;BME280;5642;50.830;12.082;2023-04-03T07:55:38;100845.13;;;9.46;47.46
11172;BME280;5642;50.830;12.082;2023-04-03T07:58:14;100848.66;;;9.40;46.86
11172;BME280;5642;50.830;12.082;2023-04-03T08:00:40;100843.50;;;9.15;47.17
11172;BME280;5642;50.830;12.082;2023-04-03T08:03:10;100839.88;;;9.57;46.83
11172;BME280;5642;50.830;12.082;2023-04-03T08:05:38;100845.94;;;9.63;46.51
11172;BME280;5642;50.830;12.082;2023-04-03T08:08:05;100844.13;;;9.77;46.54
11172;BME280;5642;50.830;12.082;2023-04-03T08:10:32;100843.06;;;10.03;46.68
11172;BME280;5642;50.830;12.082;2023-04-03T08:13:03;100841.91;;;10.45;46.41
11172;BME280;5642;50.830;12.082;2023-04-03T08:15:30;100844.06;;;10.95;46.24
11172;BME280;5642;50.830;12.082;2023-04-03T08:17:58;100845.50;;;11.25;45.92
11172;BME280;5642;50.830;12.082;2023-04-03T08:20:24;100848.31;;;11.80;45.61
11172;BME280;5642;50.830;12.082;2023-04-03T08:22:51;100842.66;;;13.12;45.21
11172;BME280;5642;50.830;12.082;2023-04-03T08:25:18;100818.16;;;14.65;44.82
11172;BME280;5642;50.830;12.082;2023-04-03T08:27:45;100825.63;;;16.58;44.41
11172;BME280;5642;50.830;12.082;2023-04-03T08:30:11;100829.97;;;17.35;44.02
11172;BME280;5642;50.830;12.082;2023-04-03T08:32:38;100836.81;;;17.17;44.13
11172;BME280;5642;50.830;12.082;2023-04-03T08:35:07;100833.53;;;16.60;44.21
11172;BME280;5642;50.830;12.082;2023-04-03T08:37:38;100836.28;;;16.02;44.16
11172;BME280;5642;50.830;12.082;2023-04-03T08:40:11;100834.03;;;15.61;44.53
11172;BME280;5642;50.830;12.082;2023-04-03T08:42:54;100821.56;;;15.03;44.84
11172;BME280;5642;50.830;12.082;2023-04-03T08:45:49;100840.50;;;14.52;44.97
11172;BME280;5642;50.830;12.082;2023-04-03T08:48:23;100793.66;;;14.62;44.66
11172;BME280;5642;50.830;12.082;2023-04-03T08:50:57;100828.81;;;14.95;44.41
11172;BME280;5642;50.830;12.082;2023-04-03T08:53:30;100835.50;;;15.08;44.05
11172;BME280;5642;50.830;12.082;2023-04-03T08:56:02;100845.00;;;14.82;44.39
11172;BME280;5642;50.830;12.082;2023-04-03T08:58:40;100848.50;;;14.49;44.50
11172;BME280;5642;50.830;12.082;2023-04-03T09:01:23;100851.00;;;14.15;44.47
11172;BME280;5642;50.830;12.082;2023-04-03T09:03:50;100842.59;;;14.36;44.33
11172;BME280;5642;50.830;12.082;2023-04-03T09:06:26;100852.50;;;14.64;44.09
11172;BME280;5642;50.830;12.082;2023-04-03T09:12:17;100849.72;;;14.70;44.15
11172;BME280;5642;50.830;12.082;2023-04-03T09:15:00;100844.19;;;15.13;44.12
11172;BME280;5642;50.830;12.082;2023-04-03T09:20:22;100858.28;;;15.12;44.17
11172;BME280;5642;50.830;12.082;2023-04-03T09:22:50;100856.16;;;14.92;44.59
11172;BME280;5642;50.830;12.082;2023-04-03T09:25:22;100856.97;;;14.62;44.55
11172;BME280;5642;50.830;12.082;2023-04-03T09:27:49;100862.75;;;15.08;44.74
11172;BME280;5642;50.830;12.082;2023-04-03T09:30:19;100858.97;;;15.49;44.40
11172;BME280;5642;50.830;12.082;2023-04-03T09:32:47;100862.69;;;15.11;44.37
11172;BME280;5642;50.830;12.082;2023-04-03T09:35:34;100857.31;;;14.82;44.66
11172;BME280;5642;50.830;12.082;2023-04-03T09:40:39;100846.03;;;14.41;44.96
11172;BME280;5642;50.830;12.082;2023-04-03T09:43:27;100855.97;;;14.66;44.83
11172;BME280;5642;50.830;12.082;2023-04-03T09:45:55;100853.75;;;15.48;44.82
11172;BME280;5642;50.830;12.082;2023-04-03T09:48:24;100837.41;;;16.76;44.61
11172;BME280;5642;50.830;12.082;2023-04-03T09:53:32;100831.06;;;19.26;44.02
11172;BME280;5642;50.830;12.082;2023-04-03T09:56:00;100824.44;;;20.29;44.32
11172;BME280;5642;50.830;12.082;2023-04-03T09:58:27;100818.38;;;20.96;44.28
11172;BME280;5642;50.830;12.082;2023-04-03T10:00:57;100812.00;;;21.98;43.65
11172;BME280;5642;50.830;12.082;2023-04-03T10:03:32;100807.34;;;22.92;43.16
11172;BME280;5642;50.830;12.082;2023-04-03T10:05:58;100808.66;;;23.29;42.84
11172;BME280;5642;50.830;12.082;2023-04-03T10:08:35;100806.44;;;23.08;42.05
11172;BME280;5642;50.830;12.082;2023-04-03T10:13:53;100808.25;;;22.47;41.80
11172;BME280;5642;50.830;12.082;2023-04-03T10:19:35;100799.09;;;20.91;42.56
11172;BME280;5642;50.830;12.082;2023-04-03T10:22:14;100799.44;;;20.85;42.33
11172;BME280;5642;50.830;12.082;2023-04-03T10:36:43;100797.16;;;18.92;44.12
11172;BME280;5642;50.830;12.082;2023-04-03T10:50:36;100781.94;;;21.78;42.83
11172;BME280;5642;50.830;12.082;2023-04-03T11:01:05;100784.53;;;20.11;42.37
11172;BME280;5642;50.830;12.082;2023-04-03T11:03:46;100782.91;;;20.44;42.88
11172;BME280;5642;50.830;12.082;2023-04-03T11:06:16;100773.72;;;21.01;43.31
11172;BME280;5642;50.830;12.082;2023-04-03T11:08:59;100785.19;;;21.36;43.11
11172;BME280;5642;50.830;12.082;2023-04-03T11:11:31;100773.25;;;21.75;43.65
11172;BME280;5642;50.830;12.082;2023-04-03T11:14:08;100767.34;;;22.31;43.40
11172;BME280;5642;50.830;12.082;2023-04-03T11:16:44;100772.88;;;22.88;43.46
11172;BME280;5642;50.830;12.082;2023-04-03T11:19:18;100763.34;;;22.98;42.86
11172;BME280;5642;50.830;12.082;2023-04-03T11:21:54;100765.25;;;22.52;42.96
11172;BME280;5642;50.830;12.082;2023-04-03T11:24:32;100769.94;;;22.33;43.42
11172;BME280;5642;50.830;12.082;2023-04-03T11:27:01;100765.31;;;22.36;44.24
11172;BME280;5642;50.830;12.082;2023-04-03T11:29:35;100753.75;;;22.65;44.37
11172;BME280;5642;50.830;12.082;2023-04-03T11:35:05;100756.03;;;23.01;44.31
11172;BME280;5642;50.830;12.082;2023-04-03T11:37:35;100753.06;;;23.34;43.98
11172;BME280;5642;50.830;12.082;2023-04-03T11:45:55;100729.00;;;23.06;42.45
11172;BME280;5642;50.830;12.082;2023-04-03T11:48:42;100735.63;;;22.71;41.49
11172;BME280;5642;50.830;12.082;2023-04-03T11:51:43;100733.75;;;21.81;41.00
11172;BME280;5642;50.830;12.082;2023-04-03T12:08:48;100743.75;;;16.29;39.95
11172;BME280;5642;50.830;12.082;2023-04-03T12:11:32;100719.06;;;15.48;39.70
11172;BME280;5642;50.830;12.082;2023-04-03T12:30:21;100750.59;;;13.10;39.29
11172;BME280;5642;50.830;12.082;2023-04-03T12:39:39;100712.56;;;12.39;39.40
11172;BME280;5642;50.830;12.082;2023-04-03T12:45:22;100736.78;;;12.07;39.29
11172;BME280;5642;50.830;12.082;2023-04-03T12:48:17;100740.00;;;11.66;39.41
11172;BME280;5642;50.830;12.082;2023-04-03T12:50:46;100736.78;;;11.46;39.61
11172;BME280;5642;50.830;12.082;2023-04-03T12:53:23;100735.88;;;11.50;39.28
11172;BME280;5642;50.830;12.082;2023-04-03T12:55:56;100731.22;;;11.67;39.20
11172;BME280;5642;50.830;12.082;2023-04-03T12:58:27;100729.16;;;11.90;39.03
11172;BME280;5642;50.830;12.082;2023-04-03T13:01:02;100724.56;;;12.04;38.90
11172;BME280;5642;50.830;12.082;2023-04-03T13:03:48;100732.41;;;12.07;38.81
11172;BME280;5642;50.830;12.082;2023-04-03T13:06:32;100731.56;;;12.04;38.91
11172;BME280;5642;50.830;12.082;2023-04-03T13:09:00;100723.03;;;11.91;38.53
11172;BME280;5642;50.830;12.082;2023-04-03T13:11:34;100747.56;;;11.89;38.46
11172;BME280;5642;50.830;12.082;2023-04-03T13:14:17;100716.19;;;11.81;38.60
11172;BME280;5642;50.830;12.082;2023-04-03T13:19:25;100727.50;;;11.85;38.55
11172;BME280;5642;50.830;12.082;2023-04-03T13:22:03;100723.09;;;11.87;38.34
11172;BME280;5642;50.830;12.082;2023-04-03T13:24:33;100731.81;;;11.87;38.51
11172;BME280;5642;50.830;12.082;2023-04-03T13:27:06;100717.97;;;11.79;38.61
11172;BME280;5642;50.830;12.082;2023-04-03T13:29:36;100716.13;;;11.86;38.15
11172;BME280;5642;50.830;12.082;2023-04-03T13:32:07;100711.69;;;11.88;38.58
11172;BME280;5642;50.830;12.082;2023-04-03T13:34:43;100711.53;;;11.98;38.15
11172;BME280;5642;50.830;12.082;2023-04-03T13:37:28;100715.84;;;12.01;38.18
11172;BME280;5642;50.830;12.082;2023-04-03T13:42:30;100707.31;;;11.88;38.69
11172;BME280;5642;50.830;12.082;2023-04-03T13:45:20;100711.00;;;11.78;38.46
11172;BME280;5642;50.830;12.082;2023-04-03T13:47:51;100692.63;;;11.73;38.64
11172;BME280;5642;50.830;12.082;2023-04-03T13:50:22;100703.16;;;11.75;38.71
11172;BME280;5642;50.830;12.082;2023-04-03T13:52:52;100695.25;;;11.73;38.25
11172;BME280;5642;50.830;12.082;2023-04-03T13:58:37;100689.75;;;11.93;38.59
11172;BME280;5642;50.830;12.082;2023-04-03T14:01:11;100686.81;;;12.08;38.08
11172;BME280;5642;50.830;12.082;2023-04-03T14:06:16;100685.69;;;12.23;38.51
11172;BME280;5642;50.830;12.082;2023-04-03T14:08:44;100677.81;;;12.23;38.31
11172;BME280;5642;50.830;12.082;2023-04-03T14:11:31;100687.56;;;12.16;38.23
11172;BME280;5642;50.830;12.082;2023-04-03T14:14:05;100691.94;;;12.18;38.26
11172;BME280;5642;50.830;12.082;2023-04-03T14:16:33;100683.44;;;12.02;38.17
11172;BME280;5642;50.830;12.082;2023-04-03T14:19:03;100695.94;;;11.88;38.47
11172;BME280;5642;50.830;12.082;2023-04-03T14:21:32;100689.00;;;11.85;38.33
11172;BME280;5642;50.830;12.082;2023-04-03T14:23:58;100677.75;;;11.77;38.55
11172;BME280;5642;50.830;12.082;2023-04-03T14:26:25;100699.50;;;11.85;38.12
11172;BME280;5642;50.830;12.082;2023-04-03T14:28:54;100692.53;;;11.81;38.47
11172;BME280;5642;50.830;12.082;2023-04-03T14:31:23;100693.38;;;11.85;38.45
11172;BME280;5642;50.830;12.082;2023-04-03T14:33:50;100693.31;;;11.88;38.13
11172;BME280;5642;50.830;12.082;2023-04-03T14:36:34;100693.22;;;11.94;38.31
11172;BME280;5642;50.830;12.082;2023-04-03T14:39:03;100699.41;;;11.90;38.06
11172;BME280;5642;50.830;12.082;2023-04-03T14:41:30;100682.78;;;11.89;38.29
11172;BME280;5642;50.830;12.082;2023-04-03T14:43:56;100682.69;;;11.95;38.56
11172;BME280;5642;50.830;12.082;2023-04-03T14:46:33;100679.94;;;12.03;37.68
11172;BME280;5642;50.830;12.082;2023-04-03T14:49:03;100690.31;;;12.09;38.14
11172;BME280;5642;50.830;12.082;2023-04-03T14:51:35;100676.41;;;12.04;38.01
11172;BME280;5642;50.830;12.082;2023-04-03T14:54:06;100685.13;;;12.07;38.20
11172;BME280;5642;50.830;12.082;2023-04-03T14:56:38;100700.97;;;12.01;38.16
11172;BME280;5642;50.830;12.082;2023-04-03T14:59:09;100693.16;;;11.98;38.27
11172;BME280;5642;50.830;12.082;2023-04-03T15:01:39;100679.41;;;11.81;38.14